X  Fermer Données météorologiques d'aviation de Metar     YMML Melbourne International Airport
Température
45°F Température
45°F Point de rosée
100% Humidité



Vent
6 MPH
10 KM/H
3 M/S
5 KTS



280°
O
Conditions actuelles

Brouillard Brouillard
Pression 1019.98 (hPa) - 30.12 (inHg)
Visibilité 0.3 (mile) - 0.5 (km)
Aéroport
Code de l'aéroport YMML

Emplacement: Melbourne International Airport
Distance: 18 (mi)

Metar:
YMML 141900Z 28005KT 0500 FG 07/07 Q1020 OBSCURED

Temps: 15-06-2024 05:00 AEST